Snav Lazio — IBUH — position and weather

sailwx.info

Track history (hours):
 
Tides and Currents Weather Stations Pressure Air Temp Water Temp Dewpoint Dewpoint Depression Visibility Wind Speed Wind Dir Waves Ship Positions

Snav Lazio

Last reported at 2015-Feb-28 21:03 UTC. Time now 2015-Mar-01 00:40 UTC.
Position N 38°35' E 013°34'.

Length 162 m; draft 6 m.

Type: Passenger vessel. MMSI: 247163100.

Date/timePositionNaut miles runAvg speedWind from/ knotsBaromVisibWave heightAir tempDewpointWater temp
2015-Feb-28 21:03N 38°35' E 013°34'917.2
2015-Feb-28 20:33N 38°26' E 013°32'1616.4
2015-Feb-28 19:33N 38°10' E 013°27'4 4.1
2015-Feb-28 18:29N 38°08' E 013°22'0 0.0
2015-Feb-28 17:34N 38°08' E 013°22'0 0.0
2015-Feb-28 16:33N 38°08' E 013°22'0 0.0
2015-Feb-28 15:33N 38°08' E 013°22'0 0.0
2015-Feb-28 14:33N 38°08' E 013°22'0 0.0
2015-Feb-28 13:34N 38°08' E 013°22'0 0.0
2015-Feb-28 12:33N 38°08' E 013°22'0 0.0
2015-Feb-28 11:34N 38°08' E 013°22'0 0.0
2015-Feb-28 10:34N 38°08' E 013°22'0 0.0
2015-Feb-28 09:34N 38°08' E 013°22'0 0.0
2015-Feb-28 08:33N 38°08' E 013°22'0 0.0
2015-Feb-28 07:34N 38°08' E 013°22'0 0.0
2015-Feb-28 06:34N 38°08' E 013°22'0 0.0
2015-Feb-28 05:34N 38°08' E 013°22'5 4.6
2015-Feb-28 04:33N 38°12' E 013°25'1717.1
2015-Feb-28 03:33N 38°28' E 013°30'1817.7
2015-Feb-28 02:33N 38°46' E 013°34'9118.2
2015-Feb-27 21:33N 40°15' E 014°01'1818.3
2015-Feb-27 20:33N 40°32' E 014°08'1817.9
2015-Feb-27 19:33N 40°49' E 014°17'2 1.0
2015-Feb-27 17:32N 40°50' E 014°15'0 0.0
2015-Feb-27 16:31N 40°50' E 014°15'0 0.0
2015-Feb-27 14:12N 40°50' E 014°15'0 0.0
2015-Feb-27 13:27N 40°50' E 014°15'0 0.0
2015-Feb-27 12:32N 40°50' E 014°15'0 0.0
2015-Feb-27 11:32N 40°50' E 014°15'0 0.0
2015-Feb-27 10:31N 40°50' E 014°15'0 0.0
2015-Feb-27 09:32N 40°50' E 014°15'0 0.0
2015-Feb-27 08:32N 40°50' E 014°15'0 0.0
2015-Feb-27 07:31N 40°50' E 014°15'0 0.0
2015-Feb-27 06:25N 40°50' E 014°15'1 1.3
2015-Feb-27 05:32N 40°50' E 014°17'1414.8
2015-Feb-27 04:33N 40°37' E 014°09'1616.2
2015-Feb-27 03:33N 40°21' E 014°04'10517.0
2015-Feb-26 21:24N 38°39' E 013°34'1416.6
2015-Feb-26 20:34N 38°25' E 013°30'1716.8
2015-Feb-26 19:33N 38°09' E 013°26'3 3.1
2015-Feb-26 18:33N 38°08' E 013°22'0 0.0
2015-Feb-26 17:33N 38°08' E 013°22'0 0.0
2015-Feb-26 16:33N 38°08' E 013°22'0 0.0
2015-Feb-26 15:33N 38°08' E 013°22'0 0.0
2015-Feb-26 14:33N 38°08' E 013°22'0 0.0
2015-Feb-26 13:33N 38°08' E 013°22'0 0.0
2015-Feb-26 12:33N 38°08' E 013°22'0 0.0
2015-Feb-26 11:33N 38°08' E 013°22'0 0.0
2015-Feb-26 10:33N 38°08' E 013°22'0 0.0
2015-Feb-26 09:33N 38°08' E 013°22'0 0.0
2015-Feb-26 08:33N 38°08' E 013°22'0 0.0
2015-Feb-26 07:33N 38°08' E 013°22'0 0.0
2015-Feb-26 06:33N 38°08' E 013°22'1 1.4
2015-Feb-26 05:33N 38°08' E 013°24'1515.0
2015-Feb-26 04:33N 38°22' E 013°28'1616.3
2015-Feb-26 03:33N 38°38' E 013°33'10016.5
2015-Feb-25 21:31N 40°15' E 014°02'1616.6
2015-Feb-25 20:33N 40°31' E 014°07'1716.6
2015-Feb-25 19:33N 40°46' E 014°15'4 0.5
2015-Feb-25 11:32N 40°50' E 014°15'0 0.0
2015-Feb-25 04:32N 40°50' E 014°15'0 0.0
2015-Feb-25 03:32N 40°50' E 014°15'0 0.0
2015-Feb-25 02:14N 40°50' E 014°15'0 0.0
2015-Feb-24 19:26N 40°50' E 014°15'1 0.1
2015-Feb-24 05:18N 40°50' E 014°16'1012.9
2015-Feb-24 04:33N 40°41' E 014°12'1717.4
2015-Feb-24 03:33N 40°25' E 014°05'11017.5
2015-Feb-23 21:16N 38°37' E 013°34'1217.4
2015-Feb-23 20:33N 38°25' E 013°31'1717.3
2015-Feb-23 19:33N 38°08' E 013°25'3 2.6
2015-Feb-23 18:32N 38°08' E 013°22'0 0.0
2015-Feb-23 17:32N 38°08' E 013°22'0 0.0
2015-Feb-23 16:32N 38°08' E 013°22'0 0.0
2015-Feb-23 15:32N 38°08' E 013°22'0 0.0
2015-Feb-23 14:32N 38°08' E 013°22'0 0.0
2015-Feb-23 13:32N 38°08' E 013°22'0 0.0
2015-Feb-23 12:32N 38°08' E 013°22'0 0.0
2015-Feb-23 11:32N 38°08' E 013°22'0 0.0
2015-Feb-23 10:32N 38°08' E 013°22'0 0.0
2015-Feb-23 09:32N 38°08' E 013°22'0 0.0
2015-Feb-23 08:32N 38°08' E 013°22'0 0.0
2015-Feb-23 07:32N 38°08' E 013°22'0 0.0
2015-Feb-23 06:32N 38°08' E 013°22'0 0.0
2015-Feb-23 05:32N 38°08' E 013°22'5 5.6
2015-Feb-23 04:34N 38°13' E 013°26'1615.6
2015-Feb-23 03:34N 38°28' E 013°30'1817.6
2015-Feb-23 02:33N 38°45' E 013°35'16 0.5
2015-Feb-21 20:33N 38°29' E 013°32'1918.9
2015-Feb-21 19:33N 38°11' E 013°26'4 4.3
2015-Feb-21 18:33N 38°08' E 013°22'0 0.0
2015-Feb-21 17:33N 38°08' E 013°22'0 0.0
2015-Feb-21 16:33N 38°08' E 013°22'0 0.0
2015-Feb-21 15:33N 38°08' E 013°22'0 0.0
2015-Feb-21 14:33N 38°08' E 013°22'0 0.0
2015-Feb-21 13:33N 38°08' E 013°22'0 0.0
2015-Feb-21 12:33N 38°08' E 013°22'0 0.0
2015-Feb-21 11:24N 38°08' E 013°22'0 0.0
2015-Feb-21 10:33N 38°08' E 013°22'0 0.0
2015-Feb-21 09:33N 38°08' E 013°22'0 0.0
2015-Feb-21 08:33N 38°08' E 013°22'0 0.0
2015-Feb-21 07:33N 38°08' E 013°22'0 0.0
2015-Feb-21 06:33N 38°08' E 013°22'0 0.0
2015-Feb-21 05:33N 38°08' E 013°22'1110.7
2015-Feb-21 04:33N 38°18' E 013°27'1818.1
2015-Feb-21 03:33N 38°36' E 013°32'10417.3
2015-Feb-20 21:33N 40°17' E 014°03'1717.1
2015-Feb-20 20:34N 40°33' E 014°08'1717.2
2015-Feb-20 19:33N 40°49' E 014°17'2 0.1
2015-Feb-20 06:29N 40°50' E 014°15'7 3.6
2015-Feb-20 04:33N 40°44' E 014°14'1717.5
2015-Feb-20 03:33N 40°27' E 014°05'11317.5
2015-Feb-19 21:05N 38°36' E 013°34'917.3
2015-Feb-19 20:33N 38°28' E 013°31'1717.4
2015-Feb-19 19:33N 38°11' E 013°27'5 4.3
2015-Feb-19 18:31N 38°08' E 013°22'0 0.0
2015-Feb-19 17:31N 38°08' E 013°22'0 0.0
2015-Feb-19 16:31N 38°08' E 013°22'0 0.0
2015-Feb-19 15:31N 38°08' E 013°22'0 0.0
2015-Feb-19 14:31N 38°08' E 013°22'0 0.0
2015-Feb-19 13:31N 38°08' E 013°22'0 0.0
2015-Feb-19 12:31N 38°08' E 013°22'0 0.0
2015-Feb-19 11:31N 38°08' E 013°22'0 0.0
2015-Feb-19 10:31N 38°08' E 013°22'0 0.0
2015-Feb-19 09:31N 38°08' E 013°22'0 0.0
2015-Feb-19 08:31N 38°08' E 013°22'0 0.0
2015-Feb-19 07:31N 38°08' E 013°22'0 0.0
2015-Feb-19 06:31N 38°08' E 013°22'0 0.0
2015-Feb-19 05:31N 38°08' E 013°22'6 6.3
2015-Feb-19 04:33N 38°13' E 013°26'1615.8
2015-Feb-19 03:33N 38°29' E 013°30'1717.3
2015-Feb-19 02:33N 38°46' E 013°35'8817.5
2015-Feb-18 21:31N 40°11' E 014°01'  
Track history (hours):
 
Tides and Currents Weather Stations Pressure Air Temp Water Temp Dewpoint Dewpoint Depression Visibility Wind Speed Wind Dir Waves Ship Positions

Snav Lazio

Last reported at 2015-Feb-28 21:03 UTC. Time now 2015-Mar-01 00:40 UTC.
Position N 38°35' E 013°34'.

Length 162 m; draft 6 m.

Type: Passenger vessel. MMSI: 247163100.

Date/timePositionNaut miles runAvg speedWind from/ knotsBaromVisibWave heightAir tempDewpointWater temp
2015-Feb-28 21:03N 38°35' E 013°34'917.2
2015-Feb-28 20:33N 38°26' E 013°32'1616.4
2015-Feb-28 19:33N 38°10' E 013°27'4 4.1
2015-Feb-28 18:29N 38°08' E 013°22'0 0.0
2015-Feb-28 17:34N 38°08' E 013°22'0 0.0
2015-Feb-28 16:33N 38°08' E 013°22'0 0.0
2015-Feb-28 15:33N 38°08' E 013°22'0 0.0
2015-Feb-28 14:33N 38°08' E 013°22'0 0.0
2015-Feb-28 13:34N 38°08' E 013°22'0 0.0
2015-Feb-28 12:33N 38°08' E 013°22'0 0.0
2015-Feb-28 11:34N 38°08' E 013°22'0 0.0
2015-Feb-28 10:34N 38°08' E 013°22'0 0.0
2015-Feb-28 09:34N 38°08' E 013°22'0 0.0
2015-Feb-28 08:33N 38°08' E 013°22'0 0.0
2015-Feb-28 07:34N 38°08' E 013°22'0 0.0
2015-Feb-28 06:34N 38°08' E 013°22'0 0.0
2015-Feb-28 05:34N 38°08' E 013°22'5 4.6
2015-Feb-28 04:33N 38°12' E 013°25'1717.1
2015-Feb-28 03:33N 38°28' E 013°30'1817.7
2015-Feb-28 02:33N 38°46' E 013°34'9118.2
2015-Feb-27 21:33N 40°15' E 014°01'1818.3
2015-Feb-27 20:33N 40°32' E 014°08'1817.9
2015-Feb-27 19:33N 40°49' E 014°17'2 1.0
2015-Feb-27 17:32N 40°50' E 014°15'0 0.0
2015-Feb-27 16:31N 40°50' E 014°15'0 0.0
2015-Feb-27 14:12N 40°50' E 014°15'0 0.0
2015-Feb-27 13:27N 40°50' E 014°15'0 0.0
2015-Feb-27 12:32N 40°50' E 014°15'0 0.0
2015-Feb-27 11:32N 40°50' E 014°15'0 0.0
2015-Feb-27 10:31N 40°50' E 014°15'0 0.0
2015-Feb-27 09:32N 40°50' E 014°15'0 0.0
2015-Feb-27 08:32N 40°50' E 014°15'0 0.0
2015-Feb-27 07:31N 40°50' E 014°15'0 0.0
2015-Feb-27 06:25N 40°50' E 014°15'1 1.3
2015-Feb-27 05:32N 40°50' E 014°17'1414.8
2015-Feb-27 04:33N 40°37' E 014°09'1616.2
2015-Feb-27 03:33N 40°21' E 014°04'10517.0
2015-Feb-26 21:24N 38°39' E 013°34'1416.6
2015-Feb-26 20:34N 38°25' E 013°30'1716.8
2015-Feb-26 19:33N 38°09' E 013°26'3 3.1
2015-Feb-26 18:33N 38°08' E 013°22'0 0.0
2015-Feb-26 17:33N 38°08' E 013°22'0 0.0
2015-Feb-26 16:33N 38°08' E 013°22'0 0.0
2015-Feb-26 15:33N 38°08' E 013°22'0 0.0
2015-Feb-26 14:33N 38°08' E 013°22'0 0.0
2015-Feb-26 13:33N 38°08' E 013°22'0 0.0
2015-Feb-26 12:33N 38°08' E 013°22'0 0.0
2015-Feb-26 11:33N 38°08' E 013°22'0 0.0
2015-Feb-26 10:33N 38°08' E 013°22'0 0.0
2015-Feb-26 09:33N 38°08' E 013°22'0 0.0
2015-Feb-26 08:33N 38°08' E 013°22'0 0.0
2015-Feb-26 07:33N 38°08' E 013°22'0 0.0
2015-Feb-26 06:33N 38°08' E 013°22'1 1.4
2015-Feb-26 05:33N 38°08' E 013°24'1515.0
2015-Feb-26 04:33N 38°22' E 013°28'1616.3
2015-Feb-26 03:33N 38°38' E 013°33'10016.5
2015-Feb-25 21:31N 40°15' E 014°02'1616.6
2015-Feb-25 20:33N 40°31' E 014°07'1716.6
2015-Feb-25 19:33N 40°46' E 014°15'4 0.5
2015-Feb-25 11:32N 40°50' E 014°15'0 0.0
2015-Feb-25 04:32N 40°50' E 014°15'0 0.0
2015-Feb-25 03:32N 40°50' E 014°15'0 0.0
2015-Feb-25 02:14N 40°50' E 014°15'0 0.0
2015-Feb-24 19:26N 40°50' E 014°15'1 0.1
2015-Feb-24 05:18N 40°50' E 014°16'1012.9
2015-Feb-24 04:33N 40°41' E 014°12'1717.4
2015-Feb-24 03:33N 40°25' E 014°05'11017.5
2015-Feb-23 21:16N 38°37' E 013°34'1217.4
2015-Feb-23 20:33N 38°25' E 013°31'1717.3
2015-Feb-23 19:33N 38°08' E 013°25'3 2.6
2015-Feb-23 18:32N 38°08' E 013°22'0 0.0
2015-Feb-23 17:32N 38°08' E 013°22'0 0.0
2015-Feb-23 16:32N 38°08' E 013°22'0 0.0
2015-Feb-23 15:32N 38°08' E 013°22'0 0.0
2015-Feb-23 14:32N 38°08' E 013°22'0 0.0
2015-Feb-23 13:32N 38°08' E 013°22'0 0.0
2015-Feb-23 12:32N 38°08' E 013°22'0 0.0
2015-Feb-23 11:32N 38°08' E 013°22'0 0.0
2015-Feb-23 10:32N 38°08' E 013°22'0 0.0
2015-Feb-23 09:32N 38°08' E 013°22'0 0.0
2015-Feb-23 08:32N 38°08' E 013°22'0 0.0
2015-Feb-23 07:32N 38°08' E 013°22'0 0.0
2015-Feb-23 06:32N 38°08' E 013°22'0 0.0
2015-Feb-23 05:32N 38°08' E 013°22'5 5.6
2015-Feb-23 04:34N 38°13' E 013°26'1615.6
2015-Feb-23 03:34N 38°28' E 013°30'1817.6
2015-Feb-23 02:33N 38°45' E 013°35'16 0.5
2015-Feb-21 20:33N 38°29' E 013°32'1918.9
2015-Feb-21 19:33N 38°11' E 013°26'4 4.3
2015-Feb-21 18:33N 38°08' E 013°22'0 0.0
2015-Feb-21 17:33N 38°08' E 013°22'0 0.0
2015-Feb-21 16:33N 38°08' E 013°22'0 0.0
2015-Feb-21 15:33N 38°08' E 013°22'0 0.0
2015-Feb-21 14:33N 38°08' E 013°22'0 0.0
2015-Feb-21 13:33N 38°08' E 013°22'0 0.0
2015-Feb-21 12:33N 38°08' E 013°22'0 0.0
2015-Feb-21 11:24N 38°08' E 013°22'0 0.0
2015-Feb-21 10:33N 38°08' E 013°22'0 0.0
2015-Feb-21 09:33N 38°08' E 013°22'0 0.0
2015-Feb-21 08:33N 38°08' E 013°22'0 0.0
2015-Feb-21 07:33N 38°08' E 013°22'0 0.0
2015-Feb-21 06:33N 38°08' E 013°22'0 0.0
2015-Feb-21 05:33N 38°08' E 013°22'1110.7
2015-Feb-21 04:33N 38°18' E 013°27'1818.1
2015-Feb-21 03:33N 38°36' E 013°32'10417.3
2015-Feb-20 21:33N 40°17' E 014°03'1717.1
2015-Feb-20 20:34N 40°33' E 014°08'1717.2
2015-Feb-20 19:33N 40°49' E 014°17'2 0.1
2015-Feb-20 06:29N 40°50' E 014°15'7 3.6
2015-Feb-20 04:33N 40°44' E 014°14'1717.5
2015-Feb-20 03:33N 40°27' E 014°05'11317.5
2015-Feb-19 21:05N 38°36' E 013°34'917.3
2015-Feb-19 20:33N 38°28' E 013°31'1717.4
2015-Feb-19 19:33N 38°11' E 013°27'5 4.3
2015-Feb-19 18:31N 38°08' E 013°22'0 0.0
2015-Feb-19 17:31N 38°08' E 013°22'0 0.0
2015-Feb-19 16:31N 38°08' E 013°22'0 0.0
2015-Feb-19 15:31N 38°08' E 013°22'0 0.0
2015-Feb-19 14:31N 38°08' E 013°22'0 0.0
2015-Feb-19 13:31N 38°08' E 013°22'0 0.0
2015-Feb-19 12:31N 38°08' E 013°22'0 0.0
2015-Feb-19 11:31N 38°08' E 013°22'0 0.0
2015-Feb-19 10:31N 38°08' E 013°22'0 0.0
2015-Feb-19 09:31N 38°08' E 013°22'0 0.0
2015-Feb-19 08:31N 38°08' E 013°22'0 0.0
2015-Feb-19 07:31N 38°08' E 013°22'0 0.0
2015-Feb-19 06:31N 38°08' E 013°22'0 0.0
2015-Feb-19 05:31N 38°08' E 013°22'6 6.3
2015-Feb-19 04:33N 38°13' E 013°26'1615.8
2015-Feb-19 03:33N 38°29' E 013°30'1717.3
2015-Feb-19 02:33N 38°46' E 013°35'8817.5
2015-Feb-18 21:31N 40°11' E 014°01'  

Dump ship's entire track history